sensor_id;sensor_type;location;lat;lon;timestamp;pressure;altitude;pressure_sealevel;temperature;humidity
63035;BME280;59750;53.356;-1.458;2022-12-07T10:27:42;101200.44;;;4.98;100.00
63035;BME280;59750;53.356;-1.458;2022-12-07T10:30:12;101183.59;;;4.83;95.24
63035;BME280;59750;53.356;-1.458;2022-12-07T10:32:39;101191.75;;;5.21;100.00
63035;BME280;59750;53.356;-1.458;2022-12-07T10:35:27;101193.00;;;4.87;97.22
63035;BME280;59750;53.356;-1.458;2022-12-07T10:37:55;101185.50;;;5.47;95.10
63035;BME280;59750;53.356;-1.458;2022-12-07T10:40:40;101195.66;;;5.54;96.39
63035;BME280;59750;53.356;-1.458;2022-12-07T10:43:18;101184.84;;;5.64;95.40
63035;BME280;59750;53.356;-1.458;2022-12-07T10:48:28;101178.63;;;6.10;95.40
63035;BME280;59750;53.356;-1.458;2022-12-07T11:04:43;101157.22;;;5.80;94.94
63035;BME280;59750;53.356;-1.458;2022-12-07T11:07:42;101148.06;;;6.12;90.01
63035;BME280;59750;53.356;-1.458;2022-12-07T11:13:03;101134.13;;;6.90;84.33
63035;BME280;59750;53.356;-1.458;2022-12-07T11:15:55;101125.47;;;7.25;80.63
63035;BME280;59750;53.356;-1.458;2022-12-07T11:23:40;101120.16;;;8.30;76.51
63035;BME280;59750;53.356;-1.458;2022-12-07T11:36:44;101104.13;;;9.33;69.07
63035;BME280;59750;53.356;-1.458;2022-12-07T11:42:07;101088.25;;;10.24;68.59
63035;BME280;59750;53.356;-1.458;2022-12-07T11:48:03;101088.69;;;9.72;67.22
63035;BME280;59750;53.356;-1.458;2022-12-07T11:55:40;101071.09;;;9.88;63.68
63035;BME280;59750;53.356;-1.458;2022-12-07T12:01:24;101059.22;;;9.81;59.72
63035;BME280;59750;53.356;-1.458;2022-12-07T12:04:01;101056.69;;;9.80;64.15
63035;BME280;59750;53.356;-1.458;2022-12-07T12:06:29;101047.63;;;10.00;64.61
63035;BME280;59750;53.356;-1.458;2022-12-07T12:09:03;101047.63;;;10.00;64.85
63035;BME280;59750;53.356;-1.458;2022-12-07T12:14:24;101041.94;;;8.72;69.72
63035;BME280;59750;53.356;-1.458;2022-12-07T12:22:33;101034.59;;;6.74;78.06
63035;BME280;59750;53.356;-1.458;2022-12-07T12:25:05;101027.91;;;6.12;77.44
63035;BME280;59750;53.356;-1.458;2022-12-07T12:27:34;101032.28;;;5.50;76.17
63035;BME280;59750;53.356;-1.458;2022-12-07T12:30:04;101037.88;;;5.21;82.44
63035;BME280;59750;53.356;-1.458;2022-12-07T12:32:42;101028.66;;;4.90;81.25
63035;BME280;59750;53.356;-1.458;2022-12-07T12:41:03;101021.63;;;4.25;79.01
63035;BME280;59750;53.356;-1.458;2022-12-07T12:43:49;101027.38;;;4.10;86.24
63035;BME280;59750;53.356;-1.458;2022-12-07T12:46:36;101019.44;;;3.90;87.73
63035;BME280;59750;53.356;-1.458;2022-12-07T12:49:30;101003.53;;;3.74;84.51
63035;BME280;59750;53.356;-1.458;2022-12-07T12:57:35;100998.38;;;3.48;88.43
63035;BME280;59750;53.356;-1.458;2022-12-07T13:00:21;101000.56;;;3.35;90.02
63035;BME280;59750;53.356;-1.458;2022-12-07T13:02:55;100986.88;;;3.30;83.56
63035;BME280;59750;53.356;-1.458;2022-12-07T13:05:25;101000.31;;;3.16;90.45
63035;BME280;59750;53.356;-1.458;2022-12-07T13:07:55;101006.78;;;3.04;90.44
63035;BME280;59750;53.356;-1.458;2022-12-07T13:13:04;101004.50;;;2.94;88.44
63035;BME280;59750;53.356;-1.458;2022-12-07T13:15:39;101003.44;;;2.99;88.88
63035;BME280;59750;53.356;-1.458;2022-12-07T13:20:56;100995.25;;;2.85;93.98
63035;BME280;59750;53.356;-1.458;2022-12-07T13:28:41;100978.19;;;2.78;95.25
63035;BME280;59750;53.356;-1.458;2022-12-07T13:33:52;100967.06;;;2.73;94.96
63035;BME280;59750;53.356;-1.458;2022-12-07T13:36:21;100968.06;;;2.69;95.21
63035;BME280;59750;53.356;-1.458;2022-12-07T13:38:54;100959.50;;;2.65;91.78
63035;BME280;59750;53.356;-1.458;2022-12-07T13:41:23;100967.34;;;2.64;93.30
63035;BME280;59750;53.356;-1.458;2022-12-07T13:43:52;100971.75;;;2.62;92.64
63035;BME280;59750;53.356;-1.458;2022-12-07T13:46:27;100963.06;;;2.63;91.23
63035;BME280;59750;53.356;-1.458;2022-12-07T13:48:56;100970.16;;;2.58;95.60
63035;BME280;59750;53.356;-1.458;2022-12-07T13:51:25;100971.06;;;2.57;94.99
63035;BME280;59750;53.356;-1.458;2022-12-07T13:53:58;100973.75;;;2.54;96.85
63035;BME280;59750;53.356;-1.458;2022-12-07T13:56:27;100954.88;;;2.48;90.08
63035;BME280;59750;53.356;-1.458;2022-12-07T13:58:55;100956.56;;;2.50;89.18
63035;BME280;59750;53.356;-1.458;2022-12-07T14:01:21;100955.78;;;2.46;95.92
63035;BME280;59750;53.356;-1.458;2022-12-07T14:03:49;100952.47;;;2.41;92.63
63035;BME280;59750;53.356;-1.458;2022-12-07T14:06:23;100950.13;;;2.33;91.52
63035;BME280;59750;53.356;-1.458;2022-12-07T14:09:17;100941.75;;;2.25;93.25
63035;BME280;59750;53.356;-1.458;2022-12-07T14:11:46;100941.03;;;2.20;96.90
63035;BME280;59750;53.356;-1.458;2022-12-07T14:14:18;100936.69;;;2.19;95.58
63035;BME280;59750;53.356;-1.458;2022-12-07T14:16:58;100932.41;;;2.18;96.97
63035;BME280;59750;53.356;-1.458;2022-12-07T14:22:34;100909.44;;;2.06;96.03
63035;BME280;59750;53.356;-1.458;2022-12-07T14:25:21;100912.22;;;2.00;96.86
63035;BME280;59750;53.356;-1.458;2022-12-07T14:27:56;100920.19;;;1.94;95.49
63035;BME280;59750;53.356;-1.458;2022-12-07T14:30:26;100911.56;;;1.92;99.73
63035;BME280;59750;53.356;-1.458;2022-12-07T14:32:57;100916.94;;;1.85;100.00
63035;BME280;59750;53.356;-1.458;2022-12-07T14:35:24;100917.13;;;1.79;98.14
63035;BME280;59750;53.356;-1.458;2022-12-07T14:37:50;100914.53;;;1.79;99.09
63035;BME280;59750;53.356;-1.458;2022-12-07T14:40:21;100922.50;;;1.73;100.00
63035;BME280;59750;53.356;-1.458;2022-12-07T14:42:54;100919.28;;;1.65;99.08
63035;BME280;59750;53.356;-1.458;2022-12-07T14:45:22;100908.06;;;1.65;98.24
63035;BME280;59750;53.356;-1.458;2022-12-07T14:47:49;100903.88;;;1.59;100.00
63035;BME280;59750;53.356;-1.458;2022-12-07T14:50:18;100909.25;;;1.53;100.00
63035;BME280;59750;53.356;-1.458;2022-12-07T14:52:50;100910.44;;;1.41;100.00
63035;BME280;59750;53.356;-1.458;2022-12-07T14:57:52;100915.19;;;1.26;100.00
63035;BME280;59750;53.356;-1.458;2022-12-07T15:00:20;100913.47;;;1.24;100.00
63035;BME280;59750;53.356;-1.458;2022-12-07T15:02:48;100911.09;;;1.17;100.00
63035;BME280;59750;53.356;-1.458;2022-12-07T15:05:15;100901.81;;;1.08;100.00
63035;BME280;59750;53.356;-1.458;2022-12-07T15:07:43;100898.50;;;1.03;100.00
63035;BME280;59750;53.356;-1.458;2022-12-07T15:10:16;100900.34;;;0.98;100.00
63035;BME280;59750;53.356;-1.458;2022-12-07T15:12:44;100900.59;;;0.89;100.00
63035;BME280;59750;53.356;-1.458;2022-12-07T15:15:10;100895.50;;;0.86;100.00
63035;BME280;59750;53.356;-1.458;2022-12-07T15:17:36;100890.41;;;0.83;100.00
63035;BME280;59750;53.356;-1.458;2022-12-07T15:20:03;100892.09;;;0.84;100.00
63035;BME280;59750;53.356;-1.458;2022-12-07T15:22:29;100886.25;;;0.76;100.00
63035;BME280;59750;53.356;-1.458;2022-12-07T15:24:57;100897.81;;;0.63;100.00
63035;BME280;59750;53.356;-1.458;2022-12-07T15:27:24;100891.00;;;0.58;100.00
63035;BME280;59750;53.356;-1.458;2022-12-07T15:29:50;100897.06;;;0.57;100.00
63035;BME280;59750;53.356;-1.458;2022-12-07T15:32:16;100895.53;;;0.49;100.00
63035;BME280;59750;53.356;-1.458;2022-12-07T15:34:43;100886.03;;;0.49;100.00
63035;BME280;59750;53.356;-1.458;2022-12-07T15:37:09;100891.44;;;0.40;100.00
63035;BME280;59750;53.356;-1.458;2022-12-07T15:39:36;100896.53;;;0.43;100.00
63035;BME280;59750;53.356;-1.458;2022-12-07T15:42:02;100886.41;;;0.34;100.00
63035;BME280;59750;53.356;-1.458;2022-12-07T15:44:28;100889.81;;;0.36;100.00
63035;BME280;59750;53.356;-1.458;2022-12-07T15:47:13;100889.00;;;0.34;100.00
63035;BME280;59750;53.356;-1.458;2022-12-07T15:49:39;100877.06;;;0.28;100.00
63035;BME280;59750;53.356;-1.458;2022-12-07T15:52:05;100880.56;;;0.24;100.00
63035;BME280;59750;53.356;-1.458;2022-12-07T15:54:32;100867.69;;;0.23;100.00
63035;BME280;59750;53.356;-1.458;2022-12-07T15:56:59;100874.84;;;0.12;100.00
63035;BME280;59750;53.356;-1.458;2022-12-07T15:59:27;100869.75;;;0.09;100.00
63035;BME280;59750;53.356;-1.458;2022-12-07T16:01:54;100871.44;;;0.10;100.00
63035;BME280;59750;53.356;-1.458;2022-12-07T16:04:20;100870.63;;;0.08;100.00
63035;BME280;59750;53.356;-1.458;2022-12-07T16:06:46;100869.81;;;0.06;100.00
63035;BME280;59750;53.356;-1.458;2022-12-07T16:09:12;100865.50;;;0.06;100.00
63035;BME280;59750;53.356;-1.458;2022-12-07T16:11:38;100872.50;;;0.01;100.00
63035;BME280;59750;53.356;-1.458;2022-12-07T16:14:05;100862.16;;;0.01;100.00
63035;BME280;59750;53.356;-1.458;2022-12-07T16:16:32;100859.59;;;-0.01;100.00
63035;BME280;59750;53.356;-1.458;2022-12-07T16:18:58;100864.66;;;0.06;100.00
63035;BME280;59750;53.356;-1.458;2022-12-07T16:21:24;100860.25;;;0.09;100.00
63035;BME280;59750;53.356;-1.458;2022-12-07T16:23:50;100853.25;;;0.13;100.00
63035;BME280;59750;53.356;-1.458;2022-12-07T16:26:19;100849.72;;;0.17;100.00
63035;BME280;59750;53.356;-1.458;2022-12-07T16:28:47;100853.09;;;0.20;100.00
63035;BME280;59750;53.356;-1.458;2022-12-07T16:31:16;100848.69;;;0.24;100.00
63035;BME280;59750;53.356;-1.458;2022-12-07T16:33:43;100855.50;;;0.26;100.00
63035;BME280;59750;53.356;-1.458;2022-12-07T16:36:12;100845.25;;;0.23;100.00
63035;BME280;59750;53.356;-1.458;2022-12-07T16:38:39;100855.59;;;0.23;100.00
63035;BME280;59750;53.356;-1.458;2022-12-07T16:41:06;100841.81;;;0.23;100.00
63035;BME280;59750;53.356;-1.458;2022-12-07T16:43:32;100841.81;;;0.23;100.00
63035;BME280;59750;53.356;-1.458;2022-12-07T16:45:58;100843.66;;;0.18;100.00
63035;BME280;59750;53.356;-1.458;2022-12-07T16:48:24;100842.03;;;0.14;100.00
63035;BME280;59750;53.356;-1.458;2022-12-07T16:50:50;100828.28;;;0.12;100.00
63035;BME280;59750;53.356;-1.458;2022-12-07T16:53:21;100825.81;;;0.07;100.00
63035;BME280;59750;53.356;-1.458;2022-12-07T16:55:47;100825.16;;;-0.03;100.00
63035;BME280;59750;53.356;-1.458;2022-12-07T16:58:15;100818.34;;;-0.07;100.00
63035;BME280;59750;53.356;-1.458;2022-12-07T17:00:42;100808.09;;;-0.10;100.00
63035;BME280;59750;53.356;-1.458;2022-12-07T17:03:09;100803.06;;;-0.16;100.00
63035;BME280;59750;53.356;-1.458;2022-12-07T17:05:40;100792.88;;;-0.22;100.00
63035;BME280;59750;53.356;-1.458;2022-12-07T17:08:08;100785.25;;;-0.29;100.00
63035;BME280;59750;53.356;-1.458;2022-12-07T17:10:36;100786.88;;;-0.24;100.00
63035;BME280;59750;53.356;-1.458;2022-12-07T17:13:04;100785.84;;;-0.17;100.00
63035;BME280;59750;53.356;-1.458;2022-12-07T17:15:57;100775.09;;;-0.37;100.00
63035;BME280;59750;53.356;-1.458;2022-12-07T17:18:27;100779.13;;;-0.24;100.00
63035;BME280;59750;53.356;-1.458;2022-12-07T17:20:53;100779.44;;;-0.39;100.00
63035;BME280;59750;53.356;-1.458;2022-12-07T17:23:19;100773.63;;;-0.47;100.00
63035;BME280;59750;53.356;-1.458;2022-12-07T17:25:45;100777.75;;;-0.40;100.00
63035;BME280;59750;53.356;-1.458;2022-12-07T17:28:12;100771.13;;;-0.52;100.00
63035;BME280;59750;53.356;-1.458;2022-12-07T17:30:38;100766.00;;;-0.53;100.00
63035;BME280;59750;53.356;-1.458;2022-12-07T17:33:04;100754.81;;;-0.54;100.00
63035;BME280;59750;53.356;-1.458;2022-12-07T17:35:30;100753.22;;;-0.61;100.00
63035;BME280;59750;53.356;-1.458;2022-12-07T17:37:56;100752.44;;;-0.65;100.00
63035;BME280;59750;53.356;-1.458;2022-12-07T17:40:22;100750.75;;;-0.66;100.00
63035;BME280;59750;53.356;-1.458;2022-12-07T17:42:48;100743.81;;;-0.64;100.00
63035;BME280;59750;53.356;-1.458;2022-12-07T17:45:16;100745.44;;;-0.59;100.00
63035;BME280;59750;53.356;-1.458;2022-12-07T17:47:42;100752.50;;;-0.68;100.00
63035;BME280;59750;53.356;-1.458;2022-12-07T17:50:09;100744.63;;;-0.62;100.00
63035;BME280;59750;53.356;-1.458;2022-12-07T17:52:38;100752.31;;;-0.58;100.00
63035;BME280;59750;53.356;-1.458;2022-12-07T17:55:23;100739.56;;;-0.66;100.00
63035;BME280;59750;53.356;-1.458;2022-12-07T17:57:49;100748.19;;;-0.67;100.00
63035;BME280;59750;53.356;-1.458;2022-12-07T18:00:17;100740.34;;;-0.63;100.00
63035;BME280;59750;53.356;-1.458;2022-12-07T18:02:44;100740.34;;;-0.63;100.00
63035;BME280;59750;53.356;-1.458;2022-12-07T18:05:09;100731.84;;;-0.68;100.00
63035;BME280;59750;53.356;-1.458;2022-12-07T18:07:36;100739.00;;;-0.79;100.00
63035;BME280;59750;53.356;-1.458;2022-12-07T18:10:03;100734.75;;;-0.81;100.00
63035;BME280;59750;53.356;-1.458;2022-12-07T18:12:32;100742.50;;;-0.83;100.00
63035;BME280;59750;53.356;-1.458;2022-12-07T18:14:58;100741.56;;;-0.79;100.00
63035;BME280;59750;53.356;-1.458;2022-12-07T18:17:24;100738.31;;;-0.88;100.00
63035;BME280;59750;53.356;-1.458;2022-12-07T18:19:50;100735.63;;;-0.84;100.00
63035;BME280;59750;53.356;-1.458;2022-12-07T18:22:16;100739.97;;;-0.86;100.00
63035;BME280;59750;53.356;-1.458;2022-12-07T18:24:42;100742.63;;;-0.89;100.00
63035;BME280;59750;53.356;-1.458;2022-12-07T18:27:08;100741.81;;;-0.91;100.00
63035;BME280;59750;53.356;-1.458;2022-12-07T18:29:34;100734.34;;;-1.03;100.00
63035;BME280;59750;53.356;-1.458;2022-12-07T18:31:59;100739.63;;;-1.09;100.00
63035;BME280;59750;53.356;-1.458;2022-12-07T18:34:26;100729.66;;;-1.28;100.00
63035;BME280;59750;53.356;-1.458;2022-12-07T18:36:53;100721.00;;;-1.25;100.00
63035;BME280;59750;53.356;-1.458;2022-12-07T18:39:20;100726.25;;;-1.30;100.00
63035;BME280;59750;53.356;-1.458;2022-12-07T18:41:46;100721.94;;;-1.29;100.00
63035;BME280;59750;53.356;-1.458;2022-12-07T18:44:13;100725.34;;;-1.27;100.00
63035;BME280;59750;53.356;-1.458;2022-12-07T18:46:40;100718.47;;;-1.28;100.00
63035;BME280;59750;53.356;-1.458;2022-12-07T18:49:11;100707.31;;;-1.29;100.00
63035;BME280;59750;53.356;-1.458;2022-12-07T18:51:38;100707.47;;;-1.38;100.00
63035;BME280;59750;53.356;-1.458;2022-12-07T18:54:04;100700.50;;;-1.33;100.00
63035;BME280;59750;53.356;-1.458;2022-12-07T18:56:30;100703.09;;;-1.33;100.00
63035;BME280;59750;53.356;-1.458;2022-12-07T18:58:58;100697.13;;;-1.35;100.00
63035;BME280;59750;53.356;-1.458;2022-12-07T19:01:46;100695.22;;;-1.27;100.00
63035;BME280;59750;53.356;-1.458;2022-12-07T19:04:14;100701.25;;;-1.28;100.00
63035;BME280;59750;53.356;-1.458;2022-12-07T19:06:42;100695.34;;;-1.33;100.00
63035;BME280;59750;53.356;-1.458;2022-12-07T19:09:09;100690.09;;;-1.28;100.00
63035;BME280;59750;53.356;-1.458;2022-12-07T19:11:36;100683.41;;;-1.40;100.00
63035;BME280;59750;53.356;-1.458;2022-12-07T19:14:28;100693.03;;;-1.46;100.00
63035;BME280;59750;53.356;-1.458;2022-12-07T19:16:57;100689.50;;;-1.42;100.00
63035;BME280;59750;53.356;-1.458;2022-12-07T19:19:29;100693.63;;;-1.32;100.00
63035;BME280;59750;53.356;-1.458;2022-12-07T19:21:55;100689.28;;;-1.30;100.00
63035;BME280;59750;53.356;-1.458;2022-12-07T19:24:25;100695.22;;;-1.27;100.00
63035;BME280;59750;53.356;-1.458;2022-12-07T19:26:51;100682.56;;;-1.40;100.00
63035;BME280;59750;53.356;-1.458;2022-12-07T19:29:18;100681.91;;;-1.50;100.00
63035;BME280;59750;53.356;-1.458;2022-12-07T19:31:44;100676.63;;;-1.44;100.00
63035;BME280;59750;53.356;-1.458;2022-12-07T19:34:11;100671.38;;;-1.39;100.00
63035;BME280;59750;53.356;-1.458;2022-12-07T19:36:38;100680.81;;;-1.38;100.00
63035;BME280;59750;53.356;-1.458;2022-12-07T19:39:05;100669.59;;;-1.37;100.00
63035;BME280;59750;53.356;-1.458;2022-12-07T19:41:31;100668.00;;;-1.43;100.00
63035;BME280;59750;53.356;-1.458;2022-12-07T19:44:01;100663.63;;;-1.39;100.00
63035;BME280;59750;53.356;-1.458;2022-12-07T19:46:27;100664.47;;;-1.39;100.00
63035;BME280;59750;53.356;-1.458;2022-12-07T19:48:54;100662.09;;;-1.48;100.00
63035;BME280;59750;53.356;-1.458;2022-12-07T19:51:20;100652.59;;;-1.46;100.00
63035;BME280;59750;53.356;-1.458;2022-12-07T19:53:47;100650.88;;;-1.47;100.00
63035;BME280;59750;53.356;-1.458;2022-12-07T19:56:14;100657.09;;;-1.56;100.00
63035;BME280;59750;53.356;-1.458;2022-12-07T19:58:41;100659.63;;;-1.54;100.00
63035;BME280;59750;53.356;-1.458;2022-12-07T20:01:07;100653.63;;;-1.54;100.00
63035;BME280;59750;53.356;-1.458;2022-12-07T20:03:34;100651.09;;;-1.56;100.00
63035;BME280;59750;53.356;-1.458;2022-12-07T20:06:00;100650.25;;;-1.58;100.00
63035;BME280;59750;53.356;-1.458;2022-12-07T20:08:26;100650.59;;;-1.76;100.00
63035;BME280;59750;53.356;-1.458;2022-12-07T20:10:52;100649.59;;;-1.69;100.00
63035;BME280;59750;53.356;-1.458;2022-12-07T20:13:19;100648.09;;;-1.79;100.00
63035;BME280;59750;53.356;-1.458;2022-12-07T20:16:04;100643.00;;;-1.82;100.00
63035;BME280;59750;53.356;-1.458;2022-12-07T20:18:31;100640.41;;;-1.82;100.00
63035;BME280;59750;53.356;-1.458;2022-12-07T20:20:58;100637.91;;;-1.85;100.00
63035;BME280;59750;53.356;-1.458;2022-12-07T20:23:26;100638.69;;;-1.82;100.00
63035;BME280;59750;53.356;-1.458;2022-12-07T20:25:54;100636.34;;;-1.96;100.00
63035;BME280;59750;53.356;-1.458;2022-12-07T20:28:21;100637.13;;;-1.91;100.00
63035;BME280;59750;53.356;-1.458;2022-12-07T20:30:51;100633.00;;;-2.01;100.00
63035;BME280;59750;53.356;-1.458;2022-12-07T20:33:19;100633.19;;;-2.10;100.00
63035;BME280;59750;53.356;-1.458;2022-12-07T20:35:45;100627.31;;;-2.20;100.00
63035;BME280;59750;53.356;-1.458;2022-12-07T20:38:13;100626.25;;;-2.08;100.00
63035;BME280;59750;53.356;-1.458;2022-12-07T20:40:46;100629.66;;;-2.06;100.00
63035;BME280;59750;53.356;-1.458;2022-12-07T20:43:12;100622.91;;;-2.11;100.00
63035;BME280;59750;53.356;-1.458;2022-12-07T20:45:57;100616.78;;;-2.06;100.00
63035;BME280;59750;53.356;-1.458;2022-12-07T20:48:23;100614.88;;;-1.96;100.00
63035;BME280;59750;53.356;-1.458;2022-12-07T20:50:50;100608.38;;;-2.15;100.00
63035;BME280;59750;53.356;-1.458;2022-12-07T20:53:16;100606.63;;;-2.15;100.00
63035;BME280;59750;53.356;-1.458;2022-12-07T20:55:42;100602.16;;;-2.05;100.00
63035;BME280;59750;53.356;-1.458;2022-12-07T20:58:09;100607.22;;;-2.01;100.00
63035;BME280;59750;53.356;-1.458;2022-12-07T21:00:35;100601.53;;;-2.20;100.00
63035;BME280;59750;53.356;-1.458;2022-12-07T21:03:03;100597.28;;;-2.19;100.00
63035;BME280;59750;53.356;-1.458;2022-12-07T21:05:30;100594.00;;;-2.30;100.00
63035;BME280;59750;53.356;-1.458;2022-12-07T21:07:55;100595.50;;;-2.17;100.00
63035;BME280;59750;53.356;-1.458;2022-12-07T21:10:22;100585.91;;;-2.09;100.00
63035;BME280;59750;53.356;-1.458;2022-12-07T21:12:48;100588.41;;;-2.06;100.00
63035;BME280;59750;53.356;-1.458;2022-12-07T21:15:14;100590.06;;;-2.02;100.00
63035;BME280;59750;53.356;-1.458;2022-12-07T21:17:40;100579.19;;;-2.17;100.00
63035;BME280;59750;53.356;-1.458;2022-12-07T21:20:07;100567.91;;;-2.12;100.00
63035;BME280;59750;53.356;-1.458;2022-12-07T21:22:33;100569.69;;;-2.14;100.00
63035;BME280;59750;53.356;-1.458;2022-12-07T21:24:59;100569.78;;;-2.20;100.00
63035;BME280;59750;53.356;-1.458;2022-12-07T21:27:25;100564.72;;;-2.26;100.00
63035;BME280;59750;53.356;-1.458;2022-12-07T21:29:51;100567.25;;;-2.23;100.00
63035;BME280;59750;53.356;-1.458;2022-12-07T21:32:17;100557.97;;;-2.32;100.00
63035;BME280;59750;53.356;-1.458;2022-12-07T21:34:43;100554.34;;;-2.22;100.00
63035;BME280;59750;53.356;-1.458;2022-12-07T21:37:10;100552.00;;;-2.34;100.00
63035;BME280;59750;53.356;-1.458;2022-12-07T21:39:36;100557.03;;;-2.28;100.00
63035;BME280;59750;53.356;-1.458;2022-12-07T21:42:02;100553.59;;;-2.28;100.00
63035;BME280;59750;53.356;-1.458;2022-12-07T21:44:28;100555.28;;;-2.26;100.00
63035;BME280;59750;53.356;-1.458;2022-12-07T21:46:54;100553.47;;;-2.21;100.00
63035;BME280;59750;53.356;-1.458;2022-12-07T21:49:20;100547.44;;;-2.21;100.00
63035;BME280;59750;53.356;-1.458;2022-12-07T21:51:46;100545.94;;;-2.31;100.00
63035;BME280;59750;53.356;-1.458;2022-12-07T21:54:12;100540.72;;;-2.28;100.00
63035;BME280;59750;53.356;-1.458;2022-12-07T21:56:40;100538.31;;;-2.36;100.00
63035;BME280;59750;53.356;-1.458;2022-12-07T21:59:12;100530.00;;;-2.53;100.00
63035;BME280;59750;53.356;-1.458;2022-12-07T22:01:39;100534.97;;;-2.41;100.00
63035;BME280;59750;53.356;-1.458;2022-12-07T22:04:08;100525.50;;;-2.40;100.00
63035;BME280;59750;53.356;-1.458;2022-12-07T22:06:35;100535.69;;;-2.34;100.00
63035;BME280;59750;53.356;-1.458;2022-12-07T22:09:03;100530.59;;;-2.37;100.00
63035;BME280;59750;53.356;-1.458;2022-12-07T22:11:30;100520.25;;;-2.36;100.00
63035;BME280;59750;53.356;-1.458;2022-12-07T22:13:56;100523.81;;;-2.41;100.00
63035;BME280;59750;53.356;-1.458;2022-12-07T22:16:43;100523.00;;;-2.43;100.00
63035;BME280;59750;53.356;-1.458;2022-12-07T22:19:09;100528.91;;;-2.38;100.00
63035;BME280;59750;53.356;-1.458;2022-12-07T22:21:35;100521.19;;;-2.40;100.00
63035;BME280;59750;53.356;-1.458;2022-12-07T22:24:03;100518.59;;;-2.38;100.00
63035;BME280;59750;53.356;-1.458;2022-12-07T22:26:30;100508.34;;;-2.41;100.00
63035;BME280;59750;53.356;-1.458;2022-12-07T22:28:57;100517.88;;;-2.45;100.00
63035;BME280;59750;53.356;-1.458;2022-12-07T22:31:23;100510.09;;;-2.43;100.00
63035;BME280;59750;53.356;-1.458;2022-12-07T22:33:49;100511.00;;;-2.44;100.00
63035;BME280;59750;53.356;-1.458;2022-12-07T22:36:16;100506.97;;;-2.61;100.00
63035;BME280;59750;53.356;-1.458;2022-12-07T22:38:42;100504.44;;;-2.62;100.00
63035;BME280;59750;53.356;-1.458;2022-12-07T22:41:21;100499.16;;;-2.56;100.00
63035;BME280;59750;53.356;-1.458;2022-12-07T22:43:48;100495.72;;;-2.55;100.00
63035;BME280;59750;53.356;-1.458;2022-12-07T22:46:14;100499.16;;;-2.56;100.00
63035;BME280;59750;53.356;-1.458;2022-12-07T22:48:40;100498.28;;;-2.55;100.00
63035;BME280;59750;53.356;-1.458;2022-12-07T22:51:28;100494.84;;;-2.56;100.00
63035;BME280;59750;53.356;-1.458;2022-12-07T22:53:56;100500.88;;;-2.57;100.00
63035;BME280;59750;53.356;-1.458;2022-12-07T22:56:25;100497.47;;;-2.57;100.00
63035;BME280;59750;53.356;-1.458;2022-12-07T22:58:51;100488.06;;;-2.60;100.00
63035;BME280;59750;53.356;-1.458;2022-12-07T23:01:18;100496.06;;;-2.73;100.00
63035;BME280;59750;53.356;-1.458;2022-12-07T23:03:45;100484.88;;;-2.74;100.00
63035;BME280;59750;53.356;-1.458;2022-12-07T23:06:17;100487.72;;;-2.89;100.00
63035;BME280;59750;53.356;-1.458;2022-12-07T23:08:44;100482.63;;;-2.91;100.00
63035;BME280;59750;53.356;-1.458;2022-12-07T23:11:13;100487.63;;;-2.83;100.00
63035;BME280;59750;53.356;-1.458;2022-12-07T23:14:01;100483.28;;;-2.81;100.00
63035;BME280;59750;53.356;-1.458;2022-12-07T23:16:28;100481.53;;;-2.79;100.00
63035;BME280;59750;53.356;-1.458;2022-12-07T23:18:55;100478.03;;;-2.75;100.00
63035;BME280;59750;53.356;-1.458;2022-12-07T23:21:21;100477.19;;;-2.75;100.00
63035;BME280;59750;53.356;-1.458;2022-12-07T23:23:47;100488.34;;;-2.76;100.00
63035;BME280;59750;53.356;-1.458;2022-12-07T23:26:12;100468.59;;;-2.76;100.00
63035;BME280;59750;53.356;-1.458;2022-12-07T23:28:38;100471.31;;;-2.82;100.00
63035;BME280;59750;53.356;-1.458;2022-12-07T23:31:13;100466.09;;;-2.79;100.00
63035;BME280;59750;53.356;-1.458;2022-12-07T23:33:40;100466.06;;;-2.77;100.00
63035;BME280;59750;53.356;-1.458;2022-12-07T23:36:12;100472.94;;;-2.78;100.00
63035;BME280;59750;53.356;-1.458;2022-12-07T23:38:40;100460.97;;;-2.81;100.00
63035;BME280;59750;53.356;-1.458;2022-12-07T23:41:10;100463.53;;;-2.79;100.00
63035;BME280;59750;53.356;-1.458;2022-12-07T23:43:37;100452.41;;;-2.81;100.00
63035;BME280;59750;53.356;-1.458;2022-12-07T23:46:09;100460.09;;;-2.80;100.00
63035;BME280;59750;53.356;-1.458;2022-12-07T23:48:37;100453.31;;;-2.84;100.00
63035;BME280;59750;53.356;-1.458;2022-12-07T23:51:04;100444.72;;;-2.84;100.00
63035;BME280;59750;53.356;-1.458;2022-12-07T23:53:34;100448.19;;;-2.85;100.00
63035;BME280;59750;53.356;-1.458;2022-12-07T23:56:00;100449.13;;;-2.89;100.00
63035;BME280;59750;53.356;-1.458;2022-12-07T23:58:26;100444.03;;;-2.92;100.00
